createdAt,value
2018-02-13T05:00:51.365Z,0
2018-02-13T05:01:16.983Z,0
2018-02-13T05:01:42.558Z,0
2018-02-13T05:02:08.387Z,0
2018-02-13T05:02:33.995Z,0
2018-02-13T05:02:59.749Z,0
2018-02-13T05:03:25.458Z,0
2018-02-13T05:03:50.926Z,0
2018-02-13T05:04:16.633Z,0
2018-02-13T05:04:42.342Z,0
2018-02-13T05:05:07.830Z,0
2018-02-13T05:05:33.473Z,0
2018-02-13T05:05:59.032Z,0
2018-02-13T05:06:24.804Z,0
2018-02-13T05:06:50.330Z,0
2018-02-13T05:07:15.767Z,0
2018-02-13T05:07:41.184Z,0
2018-02-13T05:08:06.757Z,0
2018-02-13T05:08:32.266Z,0
2018-02-13T05:08:57.969Z,0
2018-02-13T05:09:23.477Z,0
2018-02-13T05:09:49.086Z,0
2018-02-13T05:10:14.569Z,0
2018-02-13T05:10:40.015Z,0
2018-02-13T05:11:05.598Z,0
2018-02-13T05:11:31.316Z,0
2018-02-13T05:11:56.821Z,0
2018-02-13T05:12:22.360Z,0
2018-02-13T05:12:47.990Z,0
2018-02-13T05:13:13.431Z,0
2018-02-13T05:13:38.984Z,0
2018-02-13T05:14:04.542Z,0
2018-02-13T05:14:29.924Z,0
2018-02-13T05:14:55.486Z,0
2018-02-13T05:15:21.136Z,0
2018-02-13T05:15:46.654Z,0
2018-02-13T05:16:12.669Z,0
2018-02-13T05:16:38.368Z,0
2018-02-13T05:17:04.257Z,0
2018-02-13T05:17:29.689Z,0
2018-02-13T05:17:55.199Z,0
2018-02-13T05:18:20.934Z,0
2018-02-13T05:18:46.595Z,0
2018-02-13T05:19:12.430Z,0
2018-02-13T05:19:37.841Z,0
2018-02-13T05:20:03.179Z,0
2018-02-13T05:20:28.707Z,0
2018-02-13T05:20:54.175Z,0
2018-02-13T05:21:19.693Z,0
2018-02-13T05:21:45.174Z,0
2018-02-13T05:22:10.707Z,0
2018-02-13T05:22:36.179Z,0
2018-02-13T05:23:01.964Z,0
2018-02-13T05:23:27.601Z,0
2018-02-13T05:23:54.086Z,0
2018-02-13T05:24:19.455Z,0
2018-02-13T05:24:44.970Z,0
2018-02-13T05:25:10.574Z,0
2018-02-13T05:25:36.994Z,0
2018-02-13T05:26:02.628Z,0
2018-02-13T05:26:28.839Z,0
2018-02-13T05:26:53.954Z,0
2018-02-13T05:27:19.354Z,0
2018-02-13T05:27:44.856Z,0
2018-02-13T05:28:10.805Z,0
2018-02-13T05:28:36.433Z,0
2018-02-13T05:29:01.915Z,0
2018-02-13T05:29:27.470Z,0
2018-02-13T05:29:52.998Z,0
2018-02-13T05:30:18.428Z,0
2018-02-13T05:30:43.940Z,0
2018-02-13T05:31:09.391Z,0
2018-02-13T05:31:34.879Z,0
2018-02-13T05:32:00.471Z,0
2018-02-13T05:32:25.983Z,0
2018-02-13T05:32:51.441Z,0
2018-02-13T05:33:16.959Z,0
2018-02-13T05:33:42.372Z,0
2018-02-13T05:34:07.870Z,0
2018-02-13T05:34:33.494Z,0
2018-02-13T05:34:58.994Z,0
2018-02-13T05:35:24.403Z,0
2018-02-13T05:35:49.922Z,0
2018-02-13T05:36:15.507Z,0
2018-02-13T05:36:41.520Z,0
2018-02-13T05:37:07.055Z,0
2018-02-13T05:37:32.511Z,0
2018-02-13T05:37:58.084Z,0
2018-02-13T05:38:23.552Z,0
2018-02-13T05:38:48.950Z,0
2018-02-13T05:39:14.508Z,0
2018-02-13T05:39:39.906Z,0
2018-02-13T05:40:05.348Z,0
2018-02-13T05:40:30.799Z,0
2018-02-13T05:40:56.306Z,0
2018-02-13T05:41:21.804Z,0
2018-02-13T05:41:47.298Z,0
2018-02-13T05:42:12.838Z,0
2018-02-13T05:42:38.344Z,0
2018-02-13T05:43:03.826Z,0
2018-02-13T05:43:29.332Z,0
2018-02-13T05:43:54.817Z,0
2018-02-13T05:44:20.379Z,0
2018-02-13T05:44:45.857Z,0
2018-02-13T05:45:11.557Z,0
2018-02-13T05:45:36.965Z,0
2018-02-13T05:46:02.452Z,0
2018-02-13T05:46:27.955Z,0
2018-02-13T05:46:53.512Z,0
2018-02-13T05:47:19.038Z,0
2018-02-13T05:47:44.647Z,0
2018-02-13T05:48:10.099Z,0
2018-02-13T05:48:35.619Z,0
2018-02-13T05:49:44.013Z,0
2018-02-13T05:50:09.313Z,0
2018-02-13T05:50:34.833Z,0
2018-02-13T05:51:00.358Z,0
2018-02-13T05:51:25.751Z,0
2018-02-13T05:51:51.368Z,0
2018-02-13T05:52:16.865Z,0
2018-02-13T05:52:42.333Z,0
2018-02-13T05:53:07.797Z,0
2018-02-13T05:53:33.277Z,0
2018-02-13T05:53:58.783Z,0
2018-02-13T05:54:24.242Z,0
2018-02-13T05:54:49.794Z,0
2018-02-13T05:55:15.188Z,0
2018-02-13T05:55:40.661Z,0
2018-02-13T05:56:06.170Z,0
2018-02-13T05:56:31.708Z,0
2018-02-13T05:56:57.175Z,0
2018-02-13T05:57:22.601Z,0
2018-02-13T05:57:48.093Z,0
2018-02-13T05:58:13.549Z,0
2018-02-13T05:58:39.016Z,0
2018-02-13T05:59:04.681Z,0
2018-02-13T05:59:30.067Z,0
2018-02-13T05:59:55.542Z,0
2018-02-13T06:00:21.058Z,0
2018-02-13T06:00:46.583Z,0
2018-02-13T06:01:12.039Z,0
2018-02-13T06:01:37.478Z,0
2018-02-13T06:02:03.042Z,0
2018-02-13T06:02:28.511Z,0
2018-02-13T06:02:53.991Z,0
2018-02-13T06:03:19.527Z,0
2018-02-13T06:03:45.021Z,0
2018-02-13T06:04:10.446Z,0
2018-02-13T06:04:35.880Z,0
2018-02-13T06:05:01.426Z,0
2018-02-13T06:05:26.829Z,0
2018-02-13T06:05:52.486Z,0
2018-02-13T06:06:18.020Z,0
2018-02-13T06:06:43.561Z,0
2018-02-13T06:07:09.052Z,0
2018-02-13T06:07:34.548Z,0
2018-02-13T06:08:00.125Z,0
2018-02-13T06:08:25.574Z,0
2018-02-13T06:08:51.018Z,0
2018-02-13T06:09:16.525Z,0
2018-02-13T06:09:42.043Z,0
2018-02-13T06:10:07.540Z,0
2018-02-13T06:10:33.043Z,0
2018-02-13T06:10:58.484Z,0
2018-02-13T06:11:23.987Z,0
2018-02-13T06:11:49.451Z,0
2018-02-13T06:12:14.956Z,0
2018-02-13T06:12:40.424Z,0
2018-02-13T06:13:05.896Z,0
2018-02-13T06:13:31.316Z,0
2018-02-13T06:13:56.805Z,0
2018-02-13T06:14:22.293Z,0
2018-02-13T06:14:47.747Z,0
2018-02-13T06:16:17.494Z,0
2018-02-13T06:16:42.928Z,0
2018-02-13T06:17:08.319Z,0
2018-02-13T06:17:33.830Z,0
2018-02-13T06:17:59.329Z,0
2018-02-13T06:18:25.068Z,0
2018-02-13T06:18:50.603Z,0
2018-02-13T06:19:16.046Z,0
2018-02-13T06:19:41.521Z,0
2018-02-13T06:20:06.989Z,0
2018-02-13T06:20:32.460Z,0
2018-02-13T06:20:58.004Z,0
2018-02-13T06:21:23.464Z,0
2018-02-13T06:21:48.893Z,0
2018-02-13T06:22:14.388Z,0
2018-02-13T06:22:39.904Z,0
2018-02-13T06:23:05.438Z,0
2018-02-13T06:23:30.888Z,0
2018-02-13T06:23:56.382Z,0
2018-02-13T06:24:22.714Z,0
2018-02-13T06:24:48.186Z,0
2018-02-13T06:25:13.780Z,0
2018-02-13T06:25:39.367Z,0
2018-02-13T06:26:05.177Z,0
2018-02-13T06:26:30.574Z,0
2018-02-13T06:26:56.091Z,0
2018-02-13T06:27:21.592Z,0
2018-02-13T06:27:46.982Z,0
2018-02-13T06:28:12.440Z,0
2018-02-13T06:28:37.956Z,0
2018-02-13T06:29:03.549Z,0
2018-02-13T06:29:29.051Z,0
2018-02-13T06:29:54.508Z,0
2018-02-13T06:30:19.977Z,0
2018-02-13T06:30:45.579Z,0
2018-02-13T06:31:11.142Z,0
2018-02-13T06:31:36.550Z,0
2018-02-13T06:32:02.037Z,0
2018-02-13T06:32:27.570Z,0
2018-02-13T06:32:53.184Z,0
2018-02-13T06:33:18.945Z,0
2018-02-13T06:33:44.478Z,0
2018-02-13T06:34:11.067Z,0
2018-02-13T06:34:37.062Z,0
2018-02-13T06:35:03.340Z,0
2018-02-13T06:35:28.512Z,0
2018-02-13T06:35:56.061Z,0
2018-02-13T06:36:21.626Z,0
2018-02-13T06:36:47.110Z,0
2018-02-13T06:37:12.617Z,0
2018-02-13T06:37:38.105Z,0
2018-02-13T06:39:03.324Z,0
2018-02-13T06:39:29.427Z,0
2018-02-13T06:39:54.924Z,0
2018-02-13T06:40:20.404Z,0
2018-02-13T06:40:45.926Z,0
2018-02-13T06:41:11.409Z,0
2018-02-13T06:41:36.931Z,0
2018-02-13T06:42:02.374Z,0
2018-02-13T06:42:27.927Z,0
2018-02-13T06:42:53.628Z,0
2018-02-13T06:44:18.404Z,5
2018-02-13T06:44:43.888Z,5
2018-02-13T06:45:09.750Z,5
2018-02-13T06:45:36.227Z,5
2018-02-13T06:46:02.598Z,5
2018-02-13T06:46:28.173Z,5
2018-02-13T06:46:54.401Z,5
2018-02-13T06:47:23.024Z,5
2018-02-13T06:47:48.118Z,5
2018-02-13T06:48:14.078Z,5
2018-02-13T06:48:39.634Z,5
2018-02-13T06:49:05.083Z,5
2018-02-13T06:49:30.543Z,5
2018-02-13T06:49:56.112Z,5
2018-02-13T06:50:21.607Z,5
2018-02-13T06:50:47.139Z,5
2018-02-13T06:51:12.605Z,5
2018-02-13T06:51:38.119Z,5
2018-02-13T06:52:03.695Z,5
2018-02-13T06:52:29.240Z,5
2018-02-13T06:52:54.628Z,5
2018-02-13T06:53:20.056Z,10
2018-02-13T06:53:45.569Z,10
2018-02-13T06:54:11.105Z,10
2018-02-13T06:54:36.624Z,10
2018-02-13T06:55:02.244Z,10
2018-02-13T06:55:27.705Z,10
2018-02-13T06:55:53.232Z,10
2018-02-13T06:56:18.689Z,10
2018-02-13T06:56:44.147Z,10
2018-02-13T06:57:09.689Z,10
2018-02-13T06:57:35.091Z,10
2018-02-13T06:58:00.680Z,10
2018-02-13T06:58:26.244Z,10
2018-02-13T06:58:51.906Z,10
2018-02-13T06:59:17.426Z,10
2018-02-13T06:59:42.886Z,10
2018-02-13T07:00:08.400Z,15
2018-02-13T07:00:33.957Z,15
2018-02-13T07:00:59.467Z,15
2018-02-13T07:01:24.877Z,15
2018-02-13T07:01:50.368Z,15
2018-02-13T07:02:15.831Z,15
2018-02-13T07:02:41.335Z,15
2018-02-13T07:03:06.754Z,15
2018-02-13T07:03:32.251Z,15
2018-02-13T07:03:57.747Z,15
2018-02-13T07:04:23.300Z,15
2018-02-13T07:04:48.885Z,15
2018-02-13T07:05:14.809Z,15
2018-02-13T07:05:40.259Z,15
2018-02-13T07:06:05.781Z,20
2018-02-13T07:06:31.291Z,20
2018-02-13T07:06:56.659Z,20
2018-02-13T07:07:22.252Z,20
2018-02-13T07:07:47.885Z,20
2018-02-13T07:08:13.325Z,20
2018-02-13T07:08:38.767Z,20
2018-02-13T07:09:04.459Z,20
2018-02-13T07:09:29.919Z,20
2018-02-13T07:09:55.425Z,20
2018-02-13T07:10:20.913Z,20
2018-02-13T07:10:46.426Z,20
2018-02-13T07:11:11.956Z,20
2018-02-13T07:11:37.599Z,25
2018-02-13T07:12:03.098Z,25
2018-02-13T07:12:28.708Z,25
2018-02-13T07:12:54.350Z,25
2018-02-13T07:13:19.603Z,25
2018-02-13T07:13:45.059Z,25
2018-02-13T07:14:10.563Z,25
2018-02-13T07:14:36.092Z,25
2018-02-13T07:15:01.527Z,25
2018-02-13T07:15:27.095Z,25
2018-02-13T07:15:52.530Z,25
2018-02-13T07:16:18.012Z,25
2018-02-13T07:16:43.478Z,25
2018-02-13T07:17:09.002Z,25
2018-02-13T07:17:34.545Z,25
2018-02-13T07:17:59.990Z,30
2018-02-13T07:18:25.500Z,30
2018-02-13T07:18:51.002Z,30
2018-02-13T07:19:16.413Z,30
2018-02-13T07:19:41.970Z,30
2018-02-13T07:20:07.579Z,30
2018-02-13T07:20:32.956Z,30
2018-02-13T07:20:58.535Z,30
2018-02-13T07:21:24.056Z,30
2018-02-13T07:21:49.490Z,30
2018-02-13T07:22:15.063Z,30
2018-02-13T07:22:40.523Z,30
2018-02-13T07:23:06.139Z,30
2018-02-13T07:23:31.645Z,35
2018-02-13T07:23:57.196Z,35
2018-02-13T07:24:22.602Z,35
2018-02-13T07:24:48.067Z,35
2018-02-13T07:25:13.560Z,35
2018-02-13T07:25:39.078Z,35
2018-02-13T07:26:04.528Z,35
2018-02-13T07:26:29.989Z,35
2018-02-13T07:26:55.560Z,35
2018-02-13T07:27:21.136Z,35
2018-02-13T07:27:46.562Z,35
2018-02-13T07:28:12.094Z,35
2018-02-13T07:28:37.480Z,35
2018-02-13T07:29:03.046Z,35
2018-02-13T07:29:28.452Z,35
2018-02-13T07:29:53.925Z,40
2018-02-13T07:30:19.485Z,40
2018-02-13T07:30:45.104Z,40
2018-02-13T07:31:10.630Z,40
2018-02-13T07:31:36.311Z,40
2018-02-13T07:32:01.753Z,40
2018-02-13T07:32:27.210Z,40
2018-02-13T07:32:52.835Z,40
2018-02-13T07:33:18.347Z,40
2018-02-13T07:33:43.846Z,40
2018-02-13T07:34:09.328Z,40
2018-02-13T07:34:34.761Z,40
2018-02-13T07:35:00.240Z,40
2018-02-13T07:35:25.804Z,40
2018-02-13T07:35:51.306Z,40
2018-02-13T07:36:16.770Z,40
2018-02-13T07:36:42.324Z,40
2018-02-13T07:37:07.764Z,45
2018-02-13T07:37:33.280Z,45
2018-02-13T07:37:58.707Z,45
2018-02-13T07:38:24.191Z,45
2018-02-13T07:38:49.730Z,45
2018-02-13T07:39:15.161Z,45
2018-02-13T07:39:40.706Z,45
2018-02-13T07:40:06.163Z,45
2018-02-13T07:40:31.672Z,45
2018-02-13T07:40:57.103Z,45
2018-02-13T07:41:22.561Z,45
2018-02-13T07:41:48.055Z,45
2018-02-13T07:42:13.585Z,45
2018-02-13T07:42:39.127Z,45
2018-02-13T07:43:04.591Z,45
2018-02-13T07:43:30.056Z,45
2018-02-13T07:43:55.598Z,45
2018-02-13T07:44:21.148Z,50
2018-02-13T07:44:46.594Z,50
2018-02-13T07:45:12.025Z,50
2018-02-13T07:45:37.501Z,50
2018-02-13T07:46:02.974Z,50
2018-02-13T07:46:28.481Z,50
2018-02-13T07:46:53.962Z,50
2018-02-13T07:47:19.380Z,50
2018-02-13T07:47:44.841Z,50
2018-02-13T07:48:10.408Z,50
2018-02-13T07:49:34.497Z,50
2018-02-13T07:49:59.977Z,50
2018-02-13T07:50:25.432Z,50
2018-02-13T07:51:39.205Z,50
2018-02-13T07:52:05.332Z,50
2018-02-13T07:52:30.838Z,55
2018-02-13T07:52:56.308Z,55
2018-02-13T07:54:06.212Z,55
2018-02-13T07:54:31.756Z,55
2018-02-13T07:54:57.215Z,55
2018-02-13T07:55:22.957Z,55
2018-02-13T07:55:48.457Z,55
2018-02-13T07:56:14.098Z,55
2018-02-13T07:56:39.607Z,55
2018-02-13T07:57:05.123Z,55
2018-02-13T07:57:30.604Z,60
2018-02-13T07:57:56.279Z,60
2018-02-13T07:58:21.901Z,60
2018-02-13T07:59:35.686Z,60
2018-02-13T08:00:01.954Z,60
2018-02-13T08:00:30.352Z,60
2018-02-13T08:00:58.003Z,60
2018-02-13T08:01:23.051Z,60
2018-02-13T08:01:48.513Z,60
2018-02-13T08:02:14.016Z,60
2018-02-13T08:02:39.555Z,65
2018-02-13T08:03:05.004Z,65
2018-02-13T08:03:30.540Z,65
2018-02-13T08:03:55.972Z,65
2018-02-13T08:04:21.416Z,65
2018-02-13T08:05:35.304Z,65
2018-02-13T08:06:00.804Z,65
2018-02-13T08:06:26.316Z,65
2018-02-13T08:06:51.835Z,65
2018-02-13T08:07:17.428Z,65
2018-02-13T08:07:42.869Z,70
2018-02-13T08:08:08.402Z,70
2018-02-13T08:08:33.784Z,70
2018-02-13T08:08:59.571Z,70
2018-02-13T08:09:25.015Z,70
2018-02-13T08:09:50.511Z,70
2018-02-13T08:10:16.017Z,70
2018-02-13T08:10:41.426Z,70
2018-02-13T08:11:06.901Z,70
2018-02-13T08:11:32.372Z,70
2018-02-13T08:11:57.798Z,75
2018-02-13T08:12:23.446Z,75
2018-02-13T08:12:49.075Z,75
2018-02-13T08:13:14.450Z,75
2018-02-13T08:13:40.104Z,75
2018-02-13T08:14:05.540Z,75
2018-02-13T08:14:31.093Z,75
2018-02-13T08:14:56.626Z,75
2018-02-13T08:15:22.054Z,80
2018-02-13T08:15:47.500Z,80
2018-02-13T08:16:12.998Z,80
2018-02-13T08:16:38.453Z,80
2018-02-13T08:17:03.951Z,80
2018-02-13T08:17:29.419Z,80
2018-02-13T08:17:54.875Z,75
2018-02-13T08:18:20.328Z,75
2018-02-13T08:18:45.777Z,75
2018-02-13T08:19:11.303Z,75
2018-02-13T08:19:36.723Z,80
2018-02-13T08:20:02.126Z,80
2018-02-13T08:20:27.755Z,80
2018-02-13T08:20:53.106Z,80
2018-02-13T08:21:18.559Z,80
2018-02-13T08:21:44.109Z,80
2018-02-13T08:22:09.688Z,80
2018-02-13T08:22:35.120Z,80
2018-02-13T08:23:00.562Z,80
2018-02-13T08:23:26.016Z,85
2018-02-13T08:23:51.504Z,80
2018-02-13T08:24:16.940Z,80
2018-02-13T08:24:42.390Z,85
2018-02-13T08:25:07.888Z,85
2018-02-13T08:25:33.293Z,85
2018-02-13T08:25:58.780Z,85
2018-02-13T08:26:24.254Z,85
2018-02-13T08:26:49.774Z,85
2018-02-13T08:27:15.239Z,85
2018-02-13T08:27:40.659Z,85
2018-02-13T08:28:06.169Z,85
2018-02-13T08:28:31.663Z,85
2018-02-13T08:28:57.157Z,85
2018-02-13T08:29:22.631Z,85
2018-02-13T08:29:48.139Z,85
2018-02-13T08:30:13.720Z,85
2018-02-13T08:30:39.156Z,85
2018-02-13T08:31:04.722Z,85
2018-02-13T08:31:30.176Z,85
2018-02-13T08:31:55.630Z,90
2018-02-13T08:32:21.072Z,90
2018-02-13T08:32:46.537Z,90
2018-02-13T08:33:12.080Z,90
2018-02-13T08:33:37.555Z,90
2018-02-13T08:34:03.045Z,90
2018-02-13T08:34:28.561Z,90
2018-02-13T08:34:54.009Z,90
2018-02-13T08:35:19.520Z,90
2018-02-13T08:35:45.157Z,90
2018-02-13T08:36:10.667Z,90
2018-02-13T08:36:36.105Z,90
2018-02-13T08:37:01.591Z,90
2018-02-13T08:37:27.105Z,90
2018-02-13T08:37:52.597Z,90
2018-02-13T08:38:18.071Z,90
2018-02-13T08:38:43.543Z,90
2018-02-13T08:39:09.023Z,95
2018-02-13T08:39:34.396Z,95
2018-02-13T08:39:59.936Z,95
2018-02-13T08:40:25.473Z,95
2018-02-13T08:40:50.894Z,95
2018-02-13T08:41:16.417Z,95
2018-02-13T08:41:41.876Z,95
2018-02-13T08:42:07.346Z,95
2018-02-13T08:42:32.976Z,95
2018-02-13T08:42:58.479Z,95
2018-02-13T08:43:24.015Z,95
2018-02-13T08:43:49.497Z,95
2018-02-13T08:44:14.880Z,95
2018-02-13T08:44:40.426Z,95
2018-02-13T08:45:05.855Z,95
2018-02-13T08:45:31.287Z,95
2018-02-13T08:45:56.829Z,95
2018-02-13T08:46:22.300Z,95
2018-02-13T08:46:47.979Z,95
2018-02-13T08:47:13.369Z,95
2018-02-13T08:47:38.828Z,95
2018-02-13T08:48:04.267Z,95
2018-02-13T08:48:29.760Z,95
2018-02-13T08:48:55.333Z,95
2018-02-13T08:49:20.726Z,95
2018-02-13T08:49:46.256Z,95
2018-02-13T08:50:11.669Z,95
2018-02-13T08:50:37.230Z,95
2018-02-13T08:51:02.606Z,95
2018-02-13T08:51:28.051Z,95
2018-02-13T08:51:53.564Z,95
2018-02-13T08:52:19.065Z,95
2018-02-13T08:52:44.461Z,95
2018-02-13T08:53:10.012Z,95
2018-02-13T08:53:35.504Z,95
2018-02-13T08:54:00.985Z,95
2018-02-13T08:54:26.495Z,95
2018-02-13T08:54:51.914Z,95
2018-02-13T08:55:17.408Z,95
2018-02-13T08:55:42.934Z,95
2018-02-13T08:56:08.417Z,95
2018-02-13T08:56:33.918Z,95
2018-02-13T08:56:59.415Z,95
2018-02-13T08:57:24.900Z,95
2018-02-13T08:57:50.411Z,95
2018-02-13T08:58:15.879Z,95
2018-02-13T08:58:41.311Z,95
2018-02-13T08:59:06.824Z,95
2018-02-13T08:59:32.284Z,95
2018-02-13T08:59:57.724Z,95
2018-02-13T09:00:23.207Z,95
2018-02-13T09:00:48.601Z,95
2018-02-13T09:01:14.187Z,95
2018-02-13T09:01:39.674Z,95
2018-02-13T09:02:05.075Z,95
2018-02-13T09:02:30.583Z,95
2018-02-13T09:02:56.034Z,95
2018-02-13T09:03:21.527Z,95
2018-02-13T09:03:46.940Z,95
2018-02-13T09:04:12.488Z,95
2018-02-13T09:04:37.940Z,95
2018-02-13T09:05:03.386Z,95
2018-02-13T09:05:28.899Z,95
2018-02-13T09:05:54.327Z,95
2018-02-13T09:06:19.835Z,95
2018-02-13T09:06:45.312Z,100
2018-02-13T09:07:10.789Z,100
2018-02-13T09:07:36.273Z,100
2018-02-13T09:08:01.695Z,100
2018-02-13T09:08:27.146Z,100
2018-02-13T09:08:52.688Z,100
2018-02-13T09:09:18.111Z,100
2018-02-13T09:09:43.550Z,100
2018-02-13T09:10:09.084Z,100
2018-02-13T09:10:34.512Z,100
2018-02-13T09:11:00.050Z,100
2018-02-13T09:11:25.514Z,100
2018-02-13T09:11:50.925Z,100
2018-02-13T09:12:16.458Z,100
2018-02-13T09:12:41.919Z,100
2018-02-13T09:13:07.369Z,100
2018-02-13T09:13:32.860Z,100
2018-02-13T09:13:58.422Z,100
2018-02-13T09:14:23.905Z,100
2018-02-13T09:14:49.386Z,100
2018-02-13T09:15:14.870Z,100
2018-02-13T09:15:40.351Z,100
2018-02-13T09:16:06.032Z,100
2018-02-13T09:16:31.470Z,100
2018-02-13T09:16:56.969Z,100
2018-02-13T09:17:22.594Z,100
2018-02-13T09:17:48.127Z,100
2018-02-13T09:18:13.710Z,100
2018-02-13T09:18:39.265Z,100
2018-02-13T09:19:04.976Z,100
2018-02-13T09:19:30.459Z,100
2018-02-13T09:19:55.925Z,100
2018-02-13T09:20:21.432Z,100
2018-02-13T09:20:46.873Z,100
2018-02-13T09:21:12.320Z,100
2018-02-13T09:21:37.827Z,100
2018-02-13T09:22:03.270Z,100
2018-02-13T09:22:28.732Z,100
2018-02-13T09:22:54.227Z,100
2018-02-13T09:23:19.725Z,100
2018-02-13T09:23:45.143Z,100
2018-02-13T09:24:10.639Z,100
2018-02-13T09:24:36.131Z,100
2018-02-13T09:25:01.672Z,100
2018-02-13T09:25:27.137Z,100
2018-02-13T09:25:52.552Z,100
2018-02-13T09:26:18.043Z,100
2018-02-13T09:26:43.510Z,100
2018-02-13T09:27:09.006Z,100
2018-02-13T09:27:34.429Z,100
2018-02-13T09:27:59.904Z,100
2018-02-13T09:28:25.415Z,100
2018-02-13T09:28:50.909Z,100
2018-02-13T09:29:16.343Z,100
2018-02-13T09:29:41.806Z,100
2018-02-13T09:30:07.300Z,100
2018-02-13T09:30:32.754Z,100
2018-02-13T09:30:58.223Z,100
2018-02-13T09:31:23.734Z,100
2018-02-13T09:31:49.201Z,100
2018-02-13T09:32:14.792Z,100
2018-02-13T09:32:40.253Z,100
2018-02-13T09:33:05.733Z,100
2018-02-13T09:33:31.288Z,100
2018-02-13T09:35:00.377Z,100
2018-02-13T09:35:25.871Z,100
2018-02-13T09:35:51.325Z,100
2018-02-13T09:36:16.815Z,100
2018-02-13T09:36:42.263Z,100
2018-02-13T09:37:07.766Z,100
2018-02-13T09:37:33.211Z,100
2018-02-13T09:37:58.728Z,100
2018-02-13T09:38:24.215Z,100
2018-02-13T09:38:49.700Z,100
2018-02-13T09:39:15.159Z,100
2018-02-13T09:39:40.637Z,100
2018-02-13T09:40:06.101Z,100
2018-02-13T09:40:31.727Z,100
2018-02-13T09:40:57.240Z,100
2018-02-13T09:41:22.705Z,100
2018-02-13T09:41:48.192Z,100
2018-02-13T09:42:13.692Z,100
2018-02-13T09:42:39.136Z,100
2018-02-13T09:43:04.613Z,100
2018-02-13T09:43:30.128Z,100
2018-02-13T09:43:55.578Z,100
2018-02-13T09:44:21.016Z,100
2018-02-13T09:44:46.512Z,100
2018-02-13T09:45:11.986Z,100
2018-02-13T09:45:37.466Z,100
2018-02-13T09:46:02.923Z,100
2018-02-13T09:46:28.462Z,100
2018-02-13T09:46:53.890Z,100
2018-02-13T09:47:19.371Z,100
2018-02-13T09:47:44.841Z,100
2018-02-13T09:48:10.296Z,100
2018-02-13T09:48:35.763Z,100
2018-02-13T09:49:01.218Z,100
2018-02-13T09:49:26.673Z,100
2018-02-13T09:49:52.149Z,100
2018-02-13T09:50:17.671Z,100
2018-02-13T09:50:43.167Z,100
2018-02-13T09:51:08.620Z,100
2018-02-13T09:51:34.114Z,100
2018-02-13T09:51:59.599Z,100
2018-02-13T09:52:25.038Z,100
2018-02-13T09:52:50.572Z,100
2018-02-13T09:53:16.116Z,100
2018-02-13T09:54:25.826Z,100
2018-02-13T09:54:51.272Z,100
2018-02-13T09:55:16.748Z,100
2018-02-13T09:55:42.327Z,100
2018-02-13T09:56:07.783Z,100
2018-02-13T09:56:33.239Z,100
2018-02-13T09:56:58.719Z,100
2018-02-13T09:57:24.183Z,100
2018-02-13T09:57:49.649Z,100
2018-02-13T09:58:15.127Z,100
2018-02-13T09:58:40.587Z,100
2018-02-13T09:59:06.079Z,100
2018-02-13T09:59:31.532Z,100
2018-02-13T09:59:57.035Z,100
2018-02-13T10:00:22.537Z,100
2018-02-13T10:00:48.031Z,100
2018-02-13T10:01:13.495Z,100
2018-02-13T10:01:38.947Z,100
2018-02-13T10:02:04.419Z,100
2018-02-13T10:02:29.880Z,100
2018-02-13T10:02:55.354Z,105
2018-02-13T10:03:20.836Z,100
2018-02-13T10:03:46.301Z,100
2018-02-13T10:04:11.812Z,100
2018-02-13T10:04:37.271Z,100
2018-02-13T10:05:02.724Z,100
2018-02-13T10:05:28.204Z,100
2018-02-13T10:05:53.708Z,100
2018-02-13T10:06:19.095Z,100
2018-02-13T10:06:44.587Z,100
2018-02-13T10:07:10.069Z,100
2018-02-13T10:07:35.549Z,95
2018-02-13T10:08:01.042Z,100
2018-02-13T10:08:26.567Z,100
2018-02-13T10:08:51.971Z,100
2018-02-13T10:09:17.406Z,100
2018-02-13T10:09:42.857Z,95
2018-02-13T10:10:08.354Z,95
2018-02-13T10:10:33.814Z,95
2018-02-13T10:10:59.258Z,95
2018-02-13T10:11:24.759Z,95
2018-02-13T10:11:50.186Z,95
2018-02-13T10:12:15.716Z,95
2018-02-13T10:12:41.168Z,95
2018-02-13T10:13:06.636Z,95
2018-02-13T10:13:32.100Z,95
2018-02-13T10:13:57.631Z,95
2018-02-13T10:14:23.129Z,95
2018-02-13T10:14:48.562Z,95
2018-02-13T10:15:14.032Z,95
2018-02-13T10:15:39.467Z,95
2018-02-13T10:16:04.964Z,95
2018-02-13T10:16:30.406Z,95
2018-02-13T10:16:55.895Z,95
2018-02-13T10:17:21.414Z,95
2018-02-13T10:17:46.940Z,95
2018-02-13T10:18:12.362Z,95
2018-02-13T10:18:37.821Z,95
2018-02-13T10:19:03.294Z,95
2018-02-13T10:19:28.730Z,95
2018-02-13T10:19:54.225Z,95
2018-02-13T10:20:19.959Z,95
2018-02-13T10:20:45.416Z,95
2018-02-13T10:21:10.865Z,95
2018-02-13T10:21:36.559Z,95
2018-02-13T10:22:01.882Z,95
2018-02-13T10:22:27.364Z,95
2018-02-13T10:22:52.804Z,95
2018-02-13T10:23:18.287Z,95
2018-02-13T10:23:43.737Z,95
2018-02-13T10:24:09.225Z,95
2018-02-13T10:24:34.706Z,95
2018-02-13T10:25:00.143Z,95
2018-02-13T10:25:25.680Z,95
2018-02-13T10:25:51.163Z,95
2018-02-13T10:26:16.609Z,95
2018-02-13T10:26:42.035Z,95
2018-02-13T10:27:07.537Z,95
2018-02-13T10:27:33.039Z,95
2018-02-13T10:27:58.563Z,95
2018-02-13T10:28:23.974Z,95
2018-02-13T10:28:49.440Z,95
2018-02-13T10:29:14.945Z,95
2018-02-13T10:29:40.554Z,95
2018-02-13T10:30:05.944Z,95
2018-02-13T10:30:31.344Z,95
2018-02-13T10:30:57.753Z,95
2018-02-13T10:31:23.275Z,95
2018-02-13T10:31:48.718Z,95
2018-02-13T10:32:14.224Z,95
2018-02-13T10:32:39.696Z,95
2018-02-13T10:33:05.217Z,95
2018-02-13T10:33:30.666Z,95
2018-02-13T10:33:56.069Z,95
2018-02-13T10:34:21.554Z,95
2018-02-13T10:34:47.114Z,95
2018-02-13T10:35:12.531Z,95
2018-02-13T10:35:38.028Z,95
2018-02-13T10:36:03.470Z,95
2018-02-13T10:36:28.911Z,95
2018-02-13T10:36:54.395Z,95
2018-02-13T10:37:19.863Z,95
2018-02-13T10:37:45.330Z,95
2018-02-13T10:38:10.780Z,95
2018-02-13T10:38:36.355Z,95
2018-02-13T10:39:01.793Z,95
2018-02-13T10:39:27.218Z,95
2018-02-13T10:39:52.709Z,90
2018-02-13T10:40:18.155Z,90
2018-02-13T10:40:43.636Z,90
2018-02-13T10:41:09.137Z,90
2018-02-13T10:41:34.574Z,90
2018-02-13T10:42:00.061Z,90
2018-02-13T10:42:25.499Z,90
2018-02-13T10:42:51.086Z,90
2018-02-13T10:43:16.634Z,90
2018-02-13T10:43:42.123Z,90
2018-02-13T10:44:07.563Z,90
2018-02-13T10:44:33.041Z,95
2018-02-13T10:44:58.472Z,95
2018-02-13T10:45:24.013Z,95
2018-02-13T10:45:49.461Z,95
2018-02-13T10:46:15.011Z,95
2018-02-13T10:46:40.431Z,95
2018-02-13T10:47:05.917Z,95
2018-02-13T10:47:31.474Z,95
2018-02-13T10:47:56.997Z,95
2018-02-13T10:48:22.419Z,95
2018-02-13T10:48:47.948Z,95
2018-02-13T10:49:13.441Z,95
2018-02-13T10:49:38.857Z,95
2018-02-13T10:50:04.382Z,95
2018-02-13T10:50:29.830Z,95
2018-02-13T10:50:55.310Z,95
2018-02-13T10:51:20.739Z,95
2018-02-13T10:51:46.329Z,95
2018-02-13T10:52:11.812Z,95
2018-02-13T10:52:37.228Z,95
2018-02-13T10:53:02.716Z,95
2018-02-13T10:53:28.176Z,95
2018-02-13T10:53:53.687Z,95
2018-02-13T10:54:19.133Z,95
2018-02-13T10:54:44.700Z,95
2018-02-13T10:55:10.175Z,95
2018-02-13T10:55:35.654Z,95
2018-02-13T10:56:01.270Z,95
2018-02-13T10:56:26.677Z,95
2018-02-13T10:56:52.216Z,95
2018-02-13T10:57:17.709Z,95
2018-02-13T10:57:43.244Z,95
2018-02-13T10:58:08.634Z,95
2018-02-13T10:58:34.082Z,95
2018-02-13T10:58:59.568Z,95
2018-02-13T10:59:25.030Z,90
2018-02-13T10:59:50.491Z,90
2018-02-13T11:00:15.961Z,90
2018-02-13T11:00:41.427Z,90
2018-02-13T11:01:06.878Z,90
2018-02-13T11:01:32.474Z,90
2018-02-13T11:03:01.634Z,90
2018-02-13T11:03:27.062Z,90
2018-02-13T11:03:52.554Z,90
2018-02-13T11:04:18.088Z,90
2018-02-13T11:04:43.507Z,90
2018-02-13T11:05:08.999Z,90
2018-02-13T11:05:34.498Z,90
2018-02-13T11:05:59.949Z,90
2018-02-13T11:06:25.425Z,90
2018-02-13T11:06:50.924Z,90
2018-02-13T11:07:16.444Z,90
2018-02-13T11:07:41.884Z,90
2018-02-13T11:09:11.138Z,90
2018-02-13T11:09:36.599Z,90
2018-02-13T11:10:02.082Z,90
2018-02-13T11:10:27.576Z,90
2018-02-13T11:10:53.028Z,90
2018-02-13T11:11:18.488Z,90
2018-02-13T11:11:43.965Z,90
2018-02-13T11:12:09.429Z,90
2018-02-13T11:12:35.017Z,90
2018-02-13T11:13:00.500Z,90
2018-02-13T11:13:25.988Z,90
2018-02-13T11:13:51.469Z,90
2018-02-13T11:14:16.878Z,90
2018-02-13T11:14:42.369Z,90
2018-02-13T11:15:07.867Z,90
2018-02-13T11:15:33.301Z,90
2018-02-13T11:15:58.769Z,90
2018-02-13T11:16:24.231Z,90
2018-02-13T11:16:49.747Z,90
2018-02-13T11:18:08.660Z,85
2018-02-13T11:18:34.097Z,85
2018-02-13T11:18:59.618Z,85